createdAt,value
2023-03-17T00:00:10.503Z,51.71
2023-03-17T00:01:09.480Z,51.81
2023-03-17T00:02:09.510Z,51.50
2023-03-17T00:03:09.436Z,52.53
2023-03-17T00:04:09.445Z,51.71
2023-03-17T00:05:09.414Z,51.61
2023-03-17T00:06:09.405Z,51.32
2023-03-17T00:07:09.401Z,51.84
2023-03-17T00:08:09.378Z,51.94
2023-03-17T00:09:10.047Z,51.84
2023-03-17T00:10:10.348Z,51.40
2023-03-17T00:11:09.374Z,51.53
2023-03-17T00:12:10.364Z,51.53
2023-03-17T00:13:09.363Z,51.42
2023-03-17T00:14:09.293Z,51.42
2023-03-17T00:15:09.304Z,51.73
2023-03-17T00:16:10.379Z,51.50
2023-03-17T00:17:10.311Z,51.61
2023-03-17T00:18:09.311Z,51.20
2023-03-17T00:19:09.288Z,51.50
2023-03-17T00:20:09.279Z,51.01
2023-03-17T00:21:09.262Z,51.63
2023-03-17T00:22:09.229Z,51.50
2023-03-17T00:23:09.217Z,51.71
2023-03-17T00:24:09.226Z,51.20
2023-03-17T00:25:09.220Z,51.20
2023-03-17T00:26:09.173Z,51.20
2023-03-17T00:27:09.165Z,51.30
2023-03-17T00:28:09.167Z,51.09
2023-03-17T00:29:09.162Z,51.71
2023-03-17T00:30:09.159Z,51.30
2023-03-17T00:31:09.191Z,50.89
2023-03-17T00:32:09.115Z,51.53
2023-03-17T00:33:09.100Z,51.63
2023-03-17T00:34:09.083Z,51.53
2023-03-17T00:35:10.093Z,51.53
2023-03-17T00:36:09.127Z,51.42
2023-03-17T00:37:09.073Z,51.63
2023-03-17T00:38:09.047Z,51.42
2023-03-17T00:39:10.031Z,51.12
2023-03-17T00:40:09.020Z,51.01
2023-03-17T00:41:09.023Z,51.63
2023-03-17T00:42:09.005Z,51.73
2023-03-17T00:43:09.009Z,51.09
2023-03-17T00:44:08.977Z,51.01
2023-03-17T00:45:08.979Z,51.71
2023-03-17T00:46:08.961Z,51.01
2023-03-17T00:47:09.972Z,51.50
2023-03-17T00:48:08.936Z,50.99
2023-03-17T00:49:09.923Z,50.70
2023-03-17T00:50:09.921Z,51.53
2023-03-17T00:51:08.902Z,51.22
2023-03-17T00:52:08.878Z,51.20
2023-03-17T00:53:09.908Z,51.01
2023-03-17T00:54:08.856Z,51.20
2023-03-17T00:55:08.843Z,51.30
2023-03-17T00:56:08.881Z,51.40
2023-03-17T00:57:08.826Z,50.99
2023-03-17T00:58:09.833Z,51.30
2023-03-17T00:59:08.818Z,51.20
2023-03-17T01:00:08.791Z,50.50
2023-03-17T01:01:08.840Z,50.78
2023-03-17T01:02:08.803Z,50.27
2023-03-17T01:03:08.805Z,49.78
2023-03-17T01:04:08.752Z,50.27
2023-03-17T01:05:08.752Z,50.37
2023-03-17T01:06:08.734Z,50.27
2023-03-17T01:07:09.720Z,50.06
2023-03-17T01:08:08.709Z,50.06
2023-03-17T01:09:08.732Z,49.96
2023-03-17T01:10:08.718Z,49.96
2023-03-17T01:11:08.687Z,49.65
2023-03-17T01:12:08.665Z,49.68
2023-03-17T01:13:09.664Z,50.19
2023-03-17T01:14:08.654Z,50.50
2023-03-17T01:15:09.631Z,50.09
2023-03-17T01:16:09.664Z,50.09
2023-03-17T01:17:08.600Z,49.68
2023-03-17T01:18:08.624Z,49.96
2023-03-17T01:19:08.581Z,49.86
2023-03-17T01:20:08.580Z,49.65
2023-03-17T01:21:08.568Z,49.14
2023-03-17T01:22:08.576Z,50.16
2023-03-17T01:23:08.562Z,49.65
2023-03-17T01:24:08.542Z,49.55
2023-03-17T01:25:08.632Z,49.55
2023-03-17T01:26:08.517Z,49.14
2023-03-17T01:27:08.514Z,48.83
2023-03-17T01:28:08.538Z,48.93
2023-03-17T01:29:08.508Z,48.83
2023-03-17T01:30:08.441Z,48.83
2023-03-17T01:31:08.457Z,49.11
2023-03-17T01:32:08.442Z,48.93
2023-03-17T01:33:08.433Z,49.32
2023-03-17T01:34:08.440Z,48.81
2023-03-17T01:35:08.542Z,49.32
2023-03-17T01:36:08.404Z,48.81
2023-03-17T01:37:08.394Z,49.01
2023-03-17T01:38:08.359Z,49.01
2023-03-17T01:39:08.371Z,49.01
2023-03-17T01:40:08.350Z,49.32
2023-03-17T01:41:08.368Z,48.81
2023-03-17T01:42:08.342Z,48.91
2023-03-17T01:43:09.306Z,49.32
2023-03-17T01:44:08.297Z,48.81
2023-03-17T01:45:08.324Z,49.63
2023-03-17T01:46:08.353Z,49.01
2023-03-17T01:47:08.272Z,49.04
2023-03-17T01:48:08.284Z,48.83
2023-03-17T01:49:08.240Z,49.44
2023-03-17T01:50:08.230Z,49.14
2023-03-17T01:51:08.245Z,48.93
2023-03-17T01:52:08.211Z,49.24
2023-03-17T01:53:08.213Z,49.04
2023-03-17T01:54:08.264Z,49.65
2023-03-17T01:55:08.201Z,49.04
2023-03-17T01:56:08.173Z,48.83
2023-03-17T01:57:08.975Z,49.44
2023-03-17T01:58:08.138Z,48.83
2023-03-17T01:59:08.147Z,48.83
2023-03-17T02:00:08.201Z,49.04
2023-03-17T02:01:08.216Z,48.93
2023-03-17T02:02:08.119Z,48.93
2023-03-17T02:03:08.127Z,49.22
2023-03-17T02:04:08.099Z,49.35
2023-03-17T02:05:08.086Z,49.24
2023-03-17T02:06:08.126Z,49.04
2023-03-17T02:07:09.027Z,49.22
2023-03-17T02:08:08.046Z,48.83
2023-03-17T02:09:08.033Z,49.04
2023-03-17T02:10:09.007Z,49.11
2023-03-17T02:11:08.027Z,49.24
2023-03-17T02:12:09.020Z,48.83
2023-03-17T02:13:09.026Z,48.93
2023-03-17T02:14:07.977Z,49.22
2023-03-17T02:15:07.950Z,49.65
2023-03-17T02:16:07.943Z,48.81
2023-03-17T02:17:08.964Z,48.83
2023-03-17T02:18:08.004Z,49.01
2023-03-17T02:19:07.925Z,48.91
2023-03-17T02:20:08.885Z,49.35
2023-03-17T02:21:07.918Z,49.04
2023-03-17T02:22:08.871Z,48.93
2023-03-17T02:23:07.871Z,48.93
2023-03-17T02:24:07.847Z,49.24
2023-03-17T02:25:07.871Z,49.14
2023-03-17T02:26:07.854Z,48.83
2023-03-17T02:27:07.827Z,49.44
2023-03-17T02:28:07.860Z,48.93
2023-03-17T02:29:08.829Z,49.14
2023-03-17T02:30:07.800Z,49.04
2023-03-17T02:31:07.959Z,49.14
2023-03-17T02:32:07.838Z,49.04
2023-03-17T02:33:07.811Z,49.16
2023-03-17T02:34:07.833Z,48.96
2023-03-17T02:35:07.739Z,49.78
2023-03-17T02:36:07.827Z,49.98
2023-03-17T02:37:07.816Z,50.19
2023-03-17T02:38:07.732Z,50.06
2023-03-17T02:39:07.767Z,49.98
2023-03-17T02:40:07.713Z,49.65
2023-03-17T02:41:07.665Z,48.96
2023-03-17T02:42:07.737Z,49.78
2023-03-17T02:43:07.659Z,48.85
2023-03-17T02:44:07.667Z,49.06
2023-03-17T02:45:08.774Z,49.90
2023-03-17T02:46:07.718Z,49.16
2023-03-17T02:47:08.690Z,49.06
2023-03-17T02:48:07.600Z,49.06
2023-03-17T02:49:07.645Z,48.85
2023-03-17T02:50:07.618Z,49.49
2023-03-17T02:51:08.561Z,49.49
2023-03-17T02:52:08.597Z,49.06
2023-03-17T02:53:07.547Z,48.85
2023-03-17T02:54:07.558Z,48.85
2023-03-17T02:55:08.580Z,48.65
2023-03-17T02:56:07.497Z,49.06
2023-03-17T02:57:07.498Z,49.26
2023-03-17T02:58:07.505Z,48.93
2023-03-17T02:59:07.475Z,49.14
2023-03-17T03:00:07.520Z,49.04
2023-03-17T03:01:07.548Z,48.83
2023-03-17T03:02:07.449Z,49.86
2023-03-17T03:03:07.434Z,50.16
2023-03-17T03:04:07.521Z,49.65
2023-03-17T03:05:07.517Z,49.14
2023-03-17T03:06:07.429Z,48.83
2023-03-17T03:07:08.396Z,49.86
2023-03-17T03:08:07.427Z,50.06
2023-03-17T03:09:08.367Z,49.76
2023-03-17T03:10:07.363Z,49.65
2023-03-17T03:11:07.353Z,50.16
2023-03-17T03:12:08.332Z,50.06
2023-03-17T03:13:07.356Z,49.96
2023-03-17T03:14:08.431Z,49.76
2023-03-17T03:15:07.312Z,50.06
2023-03-17T03:16:07.335Z,48.83
2023-03-17T03:17:07.312Z,49.26
2023-03-17T03:18:07.301Z,49.57
2023-03-17T03:19:07.260Z,49.26
2023-03-17T03:20:07.263Z,50.09
2023-03-17T03:21:08.271Z,49.24
2023-03-17T03:22:07.219Z,49.68
2023-03-17T03:23:07.237Z,49.98
2023-03-17T03:24:07.278Z,49.98
2023-03-17T03:25:07.238Z,49.88
2023-03-17T03:26:07.241Z,50.19
2023-03-17T03:27:07.208Z,49.06
2023-03-17T03:28:07.166Z,48.85
2023-03-17T03:29:08.131Z,49.98
2023-03-17T03:30:07.182Z,49.68
2023-03-17T03:31:07.161Z,49.98
2023-03-17T03:32:08.109Z,49.68
2023-03-17T03:33:07.271Z,50.16
2023-03-17T03:34:08.139Z,49.04
2023-03-17T03:35:07.110Z,48.96
2023-03-17T03:36:07.103Z,49.06
2023-03-17T03:37:08.039Z,49.08
2023-03-17T03:38:08.044Z,48.88
2023-03-17T03:39:08.107Z,48.88
2023-03-17T03:40:07.046Z,49.18
2023-03-17T03:41:08.058Z,48.96
2023-03-17T03:42:07.026Z,48.85
2023-03-17T03:43:21.771Z,49.57
2023-03-17T03:44:08.008Z,48.96
2023-03-17T03:45:08.030Z,49.06
2023-03-17T03:46:07.028Z,49.06
2023-03-17T03:47:06.980Z,49.16
2023-03-17T03:48:07.034Z,49.06
2023-03-17T03:49:07.944Z,49.06
2023-03-17T03:50:06.962Z,48.65
2023-03-17T03:51:06.913Z,48.13
2023-03-17T03:52:06.920Z,48.85
2023-03-17T03:53:07.942Z,48.34
2023-03-17T03:54:06.872Z,48.54
2023-03-17T03:55:06.941Z,47.92
2023-03-17T03:56:06.833Z,48.85
2023-03-17T03:57:06.864Z,48.26
2023-03-17T03:58:06.860Z,48.44
2023-03-17T03:59:06.847Z,48.13
2023-03-17T04:00:06.814Z,48.13
2023-03-17T04:01:06.816Z,47.70
2023-03-17T04:02:09.374Z,47.39
2023-03-17T04:03:06.862Z,47.72
2023-03-17T04:04:06.784Z,47.00
2023-03-17T04:05:06.784Z,47.08
2023-03-17T04:06:06.811Z,47.41
2023-03-17T04:07:06.708Z,47.39
2023-03-17T04:08:06.702Z,47.70
2023-03-17T04:09:06.736Z,47.39
2023-03-17T04:10:07.745Z,46.98
2023-03-17T04:11:06.675Z,46.77
2023-03-17T04:12:06.684Z,46.98
2023-03-17T04:13:07.653Z,46.48
2023-03-17T04:14:06.638Z,47.39
2023-03-17T04:15:06.669Z,47.08
2023-03-17T04:16:07.678Z,46.88
2023-03-17T04:17:06.610Z,46.77
2023-03-17T04:18:06.609Z,46.86
2023-03-17T04:19:07.734Z,47.58
2023-03-17T04:20:07.619Z,47.70
2023-03-17T04:21:06.587Z,46.47
2023-03-17T04:22:06.608Z,46.65
2023-03-17T04:23:07.646Z,46.44
2023-03-17T04:24:06.539Z,47.19
2023-03-17T04:25:06.517Z,46.67
2023-03-17T04:26:06.536Z,46.88
2023-03-17T04:27:06.581Z,46.57
2023-03-17T04:28:06.501Z,46.47
2023-03-17T04:29:06.448Z,46.67
2023-03-17T04:30:06.547Z,46.36
2023-03-17T04:31:06.569Z,46.67
2023-03-17T04:32:07.406Z,46.67
2023-03-17T04:33:06.494Z,45.75
2023-03-17T04:34:06.404Z,45.54
2023-03-17T04:35:06.418Z,46.24
2023-03-17T04:36:07.442Z,45.83
2023-03-17T04:37:06.412Z,45.95
2023-03-17T04:38:06.411Z,45.23
2023-03-17T04:39:06.437Z,45.52
2023-03-17T04:40:06.333Z,45.43
2023-03-17T04:41:06.340Z,45.72
2023-03-17T04:42:06.338Z,45.64
2023-03-17T04:43:07.408Z,45.52
2023-03-17T04:44:06.315Z,45.83
2023-03-17T04:45:07.337Z,45.83
2023-03-17T04:46:06.415Z,45.72
2023-03-17T04:47:06.286Z,45.31
2023-03-17T04:48:06.264Z,45.72
2023-03-17T04:49:07.273Z,46.55
2023-03-17T04:50:06.255Z,45.62
2023-03-17T04:51:06.216Z,45.01
2023-03-17T04:52:07.222Z,45.93
2023-03-17T04:53:06.231Z,45.62
2023-03-17T04:54:06.181Z,45.72
2023-03-17T04:55:07.218Z,44.90
2023-03-17T04:56:06.209Z,45.72
2023-03-17T04:57:06.146Z,45.62
2023-03-17T04:58:06.154Z,45.10
2023-03-17T04:59:06.160Z,45.83
2023-03-17T05:00:06.144Z,45.31
2023-03-17T05:01:06.187Z,45.95
2023-03-17T05:02:06.340Z,45.62
2023-03-17T05:03:20.057Z,45.72
2023-03-17T05:04:07.073Z,45.52
2023-03-17T05:05:07.059Z,45.54
2023-03-17T05:06:06.065Z,45.95
2023-03-17T05:07:06.115Z,45.52
2023-03-17T05:08:06.019Z,45.85
2023-03-17T05:09:06.063Z,44.41
2023-03-17T05:10:06.039Z,44.92
2023-03-17T05:11:06.041Z,45.85
2023-03-17T05:12:06.005Z,45.64
2023-03-17T05:13:05.997Z,44.82
2023-03-17T05:14:05.964Z,44.92
2023-03-17T05:15:06.013Z,45.43
2023-03-17T05:16:07.003Z,45.23
2023-03-17T05:17:05.921Z,45.03
2023-03-17T05:18:06.021Z,45.72
2023-03-17T05:19:06.862Z,45.42
2023-03-17T05:20:06.938Z,44.82
2023-03-17T05:21:06.915Z,45.13
2023-03-17T05:22:05.940Z,45.43
2023-03-17T05:23:05.904Z,45.42
2023-03-17T05:24:05.859Z,45.42
2023-03-17T05:25:05.864Z,45.01
2023-03-17T05:26:05.871Z,45.42
2023-03-17T05:27:05.929Z,45.31
2023-03-17T05:28:05.878Z,44.70
2023-03-17T05:29:05.832Z,45.83
2023-03-17T05:30:05.817Z,45.62
2023-03-17T05:31:05.871Z,45.83
2023-03-17T05:32:05.811Z,45.31
2023-03-17T05:33:06.832Z,45.83
2023-03-17T05:34:05.738Z,45.42
2023-03-17T05:35:05.725Z,46.03
2023-03-17T05:36:05.858Z,46.32
2023-03-17T05:37:05.719Z,45.85
2023-03-17T05:38:05.710Z,46.67
2023-03-17T05:39:05.720Z,46.98
2023-03-17T05:40:05.680Z,47.31
2023-03-17T05:41:05.745Z,47.74
2023-03-17T05:42:05.687Z,47.23
2023-03-17T05:43:05.651Z,47.33
2023-03-17T05:44:05.688Z,47.85
2023-03-17T05:45:06.640Z,48.16
2023-03-17T05:46:05.641Z,48.16
2023-03-17T05:47:05.609Z,48.38
2023-03-17T05:48:05.712Z,48.57
2023-03-17T05:49:06.606Z,48.16
2023-03-17T05:50:06.549Z,47.95
2023-03-17T05:51:05.624Z,48.05
2023-03-17T05:52:05.589Z,48.44
2023-03-17T05:53:05.570Z,48.03
2023-03-17T05:54:05.599Z,47.82
2023-03-17T05:55:05.564Z,47.20
2023-03-17T05:56:06.657Z,47.82
2023-03-17T05:57:05.524Z,47.82
2023-03-17T05:58:05.503Z,47.41
2023-03-17T05:59:06.459Z,46.98
2023-03-17T06:00:05.525Z,46.98
2023-03-17T06:01:05.607Z,46.77
2023-03-17T06:02:05.577Z,47.19
2023-03-17T06:03:05.423Z,46.75
2023-03-17T06:04:05.409Z,46.47
2023-03-17T06:05:06.439Z,45.95
2023-03-17T06:06:05.414Z,46.44
2023-03-17T06:07:05.423Z,46.67
2023-03-17T06:08:05.378Z,46.34
2023-03-17T06:09:05.415Z,46.75
2023-03-17T06:10:05.380Z,46.24
2023-03-17T06:11:05.367Z,46.34
2023-03-17T06:12:05.369Z,46.44
2023-03-17T06:13:05.359Z,46.32
2023-03-17T06:14:05.282Z,46.24
2023-03-17T06:15:05.312Z,46.96
2023-03-17T06:16:05.321Z,47.37
2023-03-17T06:17:05.284Z,47.06
2023-03-17T06:18:05.355Z,47.14
2023-03-17T06:19:05.270Z,46.22
2023-03-17T06:20:05.243Z,47.24
2023-03-17T06:21:06.246Z,47.24
2023-03-17T06:22:05.237Z,46.61
2023-03-17T06:23:06.267Z,46.83
2023-03-17T06:24:05.293Z,46.32
2023-03-17T06:25:05.187Z,46.53
2023-03-17T06:26:05.174Z,46.20
2023-03-17T06:27:05.168Z,45.78
2023-03-17T06:28:05.197Z,45.68
2023-03-17T06:29:05.157Z,45.48
2023-03-17T06:30:05.144Z,46.40
2023-03-17T06:31:07.223Z,46.20
2023-03-17T06:32:19.449Z,45.07
2023-03-17T06:33:06.173Z,45.27
2023-03-17T06:34:05.097Z,44.84
2023-03-17T06:35:05.116Z,44.35
2023-03-17T06:36:05.147Z,44.94
2023-03-17T06:37:05.064Z,44.84
2023-03-17T06:38:05.091Z,44.33
2023-03-17T06:39:05.031Z,44.53
2023-03-17T06:40:05.028Z,44.43
2023-03-17T06:41:05.059Z,44.23
2023-03-17T06:42:06.351Z,44.74
2023-03-17T06:43:05.042Z,44.64
2023-03-17T06:44:04.967Z,44.94
2023-03-17T06:45:05.980Z,44.12
2023-03-17T06:46:05.030Z,43.71
2023-03-17T06:47:04.972Z,44.24
2023-03-17T06:48:05.025Z,44.43
2023-03-17T06:49:04.932Z,43.71
2023-03-17T06:50:05.924Z,43.91
2023-03-17T06:51:04.923Z,44.33
2023-03-17T06:52:04.912Z,43.91
2023-03-17T06:53:04.859Z,43.71
2023-03-17T06:54:04.866Z,44.02
2023-03-17T06:55:05.856Z,43.81
2023-03-17T06:56:04.834Z,43.40
2023-03-17T06:57:04.849Z,43.81
2023-03-17T06:58:05.820Z,43.91
2023-03-17T06:59:05.868Z,42.87
2023-03-17T07:00:04.821Z,44.31
2023-03-17T07:01:05.820Z,42.89
2023-03-17T07:02:04.901Z,43.81
2023-03-17T07:03:04.876Z,44.12
2023-03-17T07:04:04.827Z,43.81
2023-03-17T07:05:04.752Z,43.30
2023-03-17T07:06:05.728Z,43.51
2023-03-17T07:07:04.732Z,43.61
2023-03-17T07:08:05.762Z,43.20
2023-03-17T07:09:04.749Z,43.91
2023-03-17T07:10:04.777Z,44.33
2023-03-17T07:11:04.688Z,43.59
2023-03-17T07:12:04.672Z,42.97
2023-03-17T07:13:04.684Z,44.20
2023-03-17T07:14:04.645Z,44.41
2023-03-17T07:15:04.683Z,42.75
2023-03-17T07:16:04.698Z,43.77
2023-03-17T07:17:04.697Z,44.06
2023-03-17T07:18:04.620Z,42.83
2023-03-17T07:19:05.622Z,42.22
2023-03-17T07:20:04.599Z,42.73
2023-03-17T07:21:04.605Z,42.42
2023-03-17T07:22:04.602Z,42.63
2023-03-17T07:23:04.549Z,43.22
2023-03-17T07:24:04.561Z,41.99
2023-03-17T07:25:04.536Z,42.19
2023-03-17T07:26:04.548Z,41.77
2023-03-17T07:27:04.614Z,42.48
2023-03-17T07:28:04.546Z,41.97
2023-03-17T07:29:04.491Z,42.16
2023-03-17T07:30:04.531Z,41.54
2023-03-17T07:31:04.570Z,41.42
2023-03-17T07:32:04.559Z,41.32
2023-03-17T07:33:05.463Z,41.81
2023-03-17T07:34:04.415Z,41.91
2023-03-17T07:35:04.440Z,40.99
2023-03-17T07:36:04.455Z,40.48
2023-03-17T07:37:04.395Z,40.99
2023-03-17T07:38:12.024Z,39.75
2023-03-17T07:39:05.377Z,39.05
2023-03-17T07:40:04.375Z,39.87
2023-03-17T07:41:04.357Z,39.14
2023-03-17T07:42:04.401Z,38.75
2023-03-17T07:43:04.357Z,38.95
2023-03-17T07:44:04.308Z,39.36
2023-03-17T07:45:04.356Z,39.97
2023-03-17T07:46:06.292Z,40.16
2023-03-17T07:47:04.271Z,38.85
2023-03-17T07:48:05.300Z,39.15
2023-03-17T07:49:04.333Z,39.87
2023-03-17T07:50:04.267Z,39.34
2023-03-17T07:51:05.259Z,38.93
2023-03-17T07:52:04.231Z,39.62
2023-03-17T07:53:04.241Z,40.03
2023-03-17T07:54:04.261Z,39.42
2023-03-17T07:55:04.227Z,40.24
2023-03-17T07:56:05.230Z,39.01
2023-03-17T07:57:05.201Z,39.10
2023-03-17T07:58:04.224Z,38.69
2023-03-17T07:59:05.160Z,38.18
2023-03-17T08:00:05.151Z,38.08
2023-03-17T08:01:04.146Z,38.09
2023-03-17T08:02:04.198Z,37.98
2023-03-17T08:03:10.365Z,38.08
2023-03-17T08:04:05.159Z,38.39
2023-03-17T08:05:05.102Z,38.18
2023-03-17T08:06:04.145Z,37.26
2023-03-17T08:07:04.116Z,39.00
2023-03-17T08:08:04.088Z,38.39
2023-03-17T08:09:04.086Z,38.16
2023-03-17T08:10:04.028Z,37.85
2023-03-17T08:11:04.019Z,38.45
2023-03-17T08:12:05.015Z,37.14
2023-03-17T08:13:04.016Z,36.71
2023-03-17T08:14:05.009Z,36.82
2023-03-17T08:15:04.998Z,36.21
2023-03-17T08:16:03.997Z,36.31
2023-03-17T08:17:04.087Z,36.90
2023-03-17T08:18:03.934Z,36.41
2023-03-17T08:19:03.928Z,36.21
2023-03-17T08:20:04.978Z,36.60
2023-03-17T08:21:03.925Z,36.70
2023-03-17T08:22:03.918Z,36.38
2023-03-17T08:23:03.921Z,36.38
2023-03-17T08:24:03.920Z,36.47
2023-03-17T08:25:03.926Z,35.97
2023-03-17T08:26:03.839Z,35.86
2023-03-17T08:27:03.885Z,35.75
2023-03-17T08:28:03.851Z,36.16
2023-03-17T08:29:04.909Z,36.05
2023-03-17T08:30:03.812Z,36.36
2023-03-17T08:31:03.891Z,36.25
2023-03-17T08:32:03.823Z,36.04
2023-03-17T08:33:03.888Z,35.63
2023-03-17T08:34:03.764Z,35.14
2023-03-17T08:35:03.748Z,34.71
2023-03-17T08:36:03.868Z,34.20
2023-03-17T08:37:03.736Z,35.53
2023-03-17T08:38:03.707Z,34.31
2023-03-17T08:39:03.806Z,34.70
2023-03-17T08:40:03.705Z,35.00
2023-03-17T08:41:04.699Z,34.70
2023-03-17T08:42:03.710Z,34.39
2023-03-17T08:43:04.670Z,34.29
2023-03-17T08:44:03.644Z,35.80
2023-03-17T08:45:03.696Z,35.51
2023-03-17T08:46:04.637Z,35.51
2023-03-17T08:47:03.615Z,35.73
2023-03-17T08:48:03.617Z,36.34
2023-03-17T08:49:03.642Z,36.04
2023-03-17T08:50:03.637Z,35.73
2023-03-17T08:51:03.576Z,36.02
2023-03-17T08:52:03.618Z,36.24
2023-03-17T08:53:04.596Z,35.83
2023-03-17T08:54:03.600Z,36.32
2023-03-17T08:55:03.527Z,35.61
2023-03-17T08:56:04.601Z,36.10
2023-03-17T08:57:04.518Z,35.80
2023-03-17T08:58:04.536Z,36.12
2023-03-17T08:59:03.505Z,35.61
2023-03-17T09:00:04.485Z,36.10
2023-03-17T09:01:03.594Z,36.10
2023-03-17T09:02:03.479Z,36.00
2023-03-17T09:03:04.560Z,36.10
2023-03-17T09:04:04.452Z,36.10
2023-03-17T09:05:04.442Z,35.99
2023-03-17T09:06:03.452Z,36.71
2023-03-17T09:07:04.732Z,36.19
2023-03-17T09:08:03.489Z,36.60
2023-03-17T09:09:03.438Z,35.48
2023-03-17T09:10:03.367Z,35.56
2023-03-17T09:11:04.394Z,35.77
2023-03-17T09:12:03.418Z,36.17
2023-03-17T09:13:03.345Z,34.44
2023-03-17T09:14:04.363Z,36.78
2023-03-17T09:15:03.368Z,35.04
2023-03-17T09:16:04.383Z,35.64
2023-03-17T09:17:05.809Z,35.14
2023-03-17T09:18:03.342Z,35.04
2023-03-17T09:19:03.321Z,35.55
2023-03-17T09:20:03.307Z,34.52
2023-03-17T09:21:03.251Z,34.82
2023-03-17T09:22:04.278Z,35.53
2023-03-17T09:23:03.265Z,35.33
2023-03-17T09:24:03.246Z,35.00
2023-03-17T09:25:03.248Z,34.60
2023-03-17T09:26:03.233Z,35.00
2023-03-17T09:27:03.187Z,35.41
2023-03-17T09:28:03.168Z,35.60
2023-03-17T09:29:04.351Z,35.70
2023-03-17T09:30:03.149Z,35.29
2023-03-17T09:31:04.171Z,35.80
2023-03-17T09:32:03.170Z,35.80
2023-03-17T09:33:03.181Z,35.19
2023-03-17T09:34:03.102Z,34.97
2023-03-17T09:35:03.147Z,34.38
2023-03-17T09:36:03.145Z,34.58
2023-03-17T09:37:04.078Z,34.08
2023-03-17T09:38:03.064Z,34.06
2023-03-17T09:39:04.063Z,34.26
2023-03-17T09:40:03.105Z,34.67
2023-03-17T09:41:03.028Z,33.45
2023-03-17T09:42:04.025Z,34.17
2023-03-17T09:43:03.006Z,33.55
2023-03-17T09:44:03.020Z,34.56
2023-03-17T09:45:04.001Z,34.25
2023-03-17T09:46:04.071Z,33.54
2023-03-17T09:47:02.957Z,34.25
2023-03-17T09:48:03.971Z,34.14
2023-03-17T09:49:02.932Z,34.45
2023-03-17T09:50:03.074Z,33.52
2023-03-17T09:51:02.918Z,34.64
2023-03-17T09:52:03.979Z,34.13
2023-03-17T09:53:04.101Z,34.62
2023-03-17T09:54:02.899Z,34.31
2023-03-17T09:55:02.924Z,33.80
2023-03-17T09:56:03.887Z,34.11
2023-03-17T09:57:02.908Z,34.11
2023-03-17T09:58:02.900Z,34.22
2023-03-17T09:59:02.816Z,33.50
2023-03-17T10:00:02.832Z,33.80
2023-03-17T10:01:02.817Z,34.00
2023-03-17T10:02:02.802Z,34.00
2023-03-17T10:03:02.791Z,33.69
2023-03-17T10:04:02.901Z,34.60
2023-03-17T10:05:02.830Z,33.69
2023-03-17T10:06:02.774Z,33.88
2023-03-17T10:07:02.762Z,34.08
2023-03-17T10:08:03.786Z,34.48
2023-03-17T10:09:02.728Z,34.59
2023-03-17T10:10:02.733Z,34.89
2023-03-17T10:11:02.749Z,33.76
2023-03-17T10:12:02.840Z,34.59
2023-03-17T10:13:02.705Z,33.78
2023-03-17T10:14:02.713Z,33.86
2023-03-17T10:15:02.702Z,33.56
2023-03-17T10:16:02.717Z,33.15
2023-03-17T10:17:02.643Z,33.46
2023-03-17T10:18:02.674Z,33.56
2023-03-17T10:19:02.660Z,33.05
2023-03-17T10:20:02.636Z,33.86
2023-03-17T10:21:03.638Z,33.75
2023-03-17T10:22:02.586Z,33.75
2023-03-17T10:23:02.622Z,33.54
2023-03-17T10:24:02.552Z,34.45
2023-03-17T10:25:03.842Z,32.95
2023-03-17T10:26:03.681Z,33.56
2023-03-17T10:27:02.527Z,33.04
2023-03-17T10:28:02.506Z,33.05
2023-03-17T10:29:02.546Z,34.06
2023-03-17T10:30:02.504Z,33.24
2023-03-17T10:31:02.499Z,33.64
2023-03-17T10:32:03.521Z,32.84
2023-03-17T10:33:03.588Z,33.75
2023-03-17T10:34:02.485Z,32.43
2023-03-17T10:35:03.228Z,33.44
2023-03-17T10:36:02.539Z,33.84
2023-03-17T10:37:02.458Z,33.02
2023-03-17T10:38:14.054Z,33.22
2023-03-17T10:39:03.445Z,33.04
2023-03-17T10:40:02.377Z,33.54
2023-03-17T10:41:02.534Z,33.43
2023-03-17T10:42:02.378Z,33.33
2023-03-17T10:43:02.363Z,33.12
2023-03-17T10:44:02.385Z,33.02
2023-03-17T10:45:02.346Z,32.81
2023-03-17T10:46:02.466Z,33.21
2023-03-17T10:47:02.397Z,33.51
2023-03-17T10:48:03.310Z,33.11
2023-03-17T10:49:03.301Z,33.59
2023-03-17T10:50:02.296Z,32.99
2023-03-17T10:51:02.284Z,33.31
2023-03-17T10:52:02.230Z,32.99
2023-03-17T10:53:02.347Z,33.39
2023-03-17T10:54:03.248Z,32.27
2023-03-17T10:55:02.213Z,32.99
2023-03-17T10:56:03.206Z,33.29
2023-03-17T10:57:02.239Z,32.98
2023-03-17T10:58:02.183Z,32.78
2023-03-17T10:59:02.235Z,33.09
2023-03-17T11:00:02.151Z,33.28
2023-03-17T11:01:02.216Z,33.78
2023-03-17T11:02:02.151Z,33.18
2023-03-17T11:03:02.212Z,33.07
2023-03-17T11:04:02.211Z,33.07
2023-03-17T11:05:02.097Z,33.58
2023-03-17T11:06:02.113Z,33.78
2023-03-17T11:07:02.103Z,33.67
2023-03-17T11:08:02.095Z,33.98
2023-03-17T11:09:02.092Z,34.07
2023-03-17T11:10:02.081Z,34.37
2023-03-17T11:11:02.062Z,33.97
2023-03-17T11:12:02.040Z,33.67
2023-03-17T11:13:02.129Z,33.55
2023-03-17T11:14:02.030Z,33.67
2023-03-17T11:15:02.053Z,33.47
2023-03-17T11:16:02.127Z,33.47
2023-03-17T11:17:02.013Z,33.76
2023-03-17T11:18:01.972Z,33.06
2023-03-17T11:19:01.975Z,33.55
2023-03-17T11:20:02.954Z,33.55
2023-03-17T11:21:01.946Z,33.45
2023-03-17T11:22:02.009Z,33.04
2023-03-17T11:23:01.905Z,32.64
2023-03-17T11:24:01.907Z,32.73
2023-03-17T11:25:02.878Z,33.15
2023-03-17T11:26:02.914Z,33.53
2023-03-17T11:27:01.883Z,32.64
2023-03-17T11:28:02.858Z,33.03
2023-03-17T11:29:01.825Z,32.14
2023-03-17T11:30:01.867Z,32.93
2023-03-17T11:31:01.885Z,32.32
2023-03-17T11:32:01.847Z,32.84
2023-03-17T11:33:01.913Z,33.85
2023-03-17T11:34:01.813Z,32.04
2023-03-17T11:35:01.837Z,31.93
2023-03-17T11:36:02.732Z,32.34
2023-03-17T11:37:01.810Z,32.44
2023-03-17T11:38:01.748Z,32.54
2023-03-17T11:39:02.771Z,32.04
2023-03-17T11:40:02.737Z,32.54
2023-03-17T11:41:01.738Z,32.12
2023-03-17T11:42:01.705Z,32.32
2023-03-17T11:43:01.711Z,31.53
2023-03-17T11:44:01.746Z,31.73
2023-03-17T11:45:01.729Z,31.84
2023-03-17T11:46:01.703Z,32.34
2023-03-17T11:47:02.672Z,31.73
2023-03-17T11:48:01.648Z,32.04
2023-03-17T11:49:01.681Z,32.14
2023-03-17T11:50:01.641Z,32.24
2023-03-17T11:51:01.679Z,32.24
2023-03-17T11:52:01.606Z,33.03
2023-03-17T11:53:01.637Z,32.12
2023-03-17T11:54:01.573Z,32.12
2023-03-17T11:55:01.548Z,32.81
2023-03-17T11:56:02.587Z,33.42
2023-03-17T11:57:01.603Z,32.43
2023-03-17T11:58:01.554Z,32.21
2023-03-17T11:59:02.525Z,33.03
2023-03-17T12:00:01.516Z,33.13
2023-03-17T12:01:01.514Z,33.22
2023-03-17T12:02:01.497Z,32.21
2023-03-17T12:03:01.651Z,32.91
2023-03-17T12:04:01.664Z,32.11
2023-03-17T12:05:01.464Z,32.21
2023-03-17T12:06:01.454Z,32.21
2023-03-17T12:07:01.438Z,32.41
2023-03-17T12:08:02.425Z,32.31
2023-03-17T12:09:02.447Z,32.21
2023-03-17T12:10:01.397Z,32.01
2023-03-17T12:11:01.387Z,33.44
2023-03-17T12:12:02.416Z,33.04
2023-03-17T12:13:01.402Z,32.43
2023-03-17T12:14:02.348Z,32.32
2023-03-17T12:15:02.373Z,32.12
2023-03-17T12:16:01.404Z,33.01
2023-03-17T12:17:01.331Z,32.63
2023-03-17T12:18:01.313Z,33.44
2023-03-17T12:19:01.340Z,33.33
2023-03-17T12:20:01.336Z,32.73
2023-03-17T12:21:01.296Z,33.03
2023-03-17T12:22:01.257Z,33.33
2023-03-17T12:23:01.263Z,33.13
2023-03-17T12:24:02.240Z,32.23
2023-03-17T12:25:01.231Z,33.44
2023-03-17T12:26:02.249Z,33.53
2023-03-17T12:27:01.230Z,33.44
2023-03-17T12:28:01.187Z,33.23
2023-03-17T12:29:01.208Z,33.13
2023-03-17T12:30:01.255Z,32.91
2023-03-17T12:31:01.223Z,33.01
2023-03-17T12:32:01.158Z,33.42
2023-03-17T12:33:02.307Z,32.91
2023-03-17T12:34:01.129Z,33.01
2023-03-17T12:35:01.132Z,33.01
2023-03-17T12:36:01.326Z,33.11
2023-03-17T12:37:01.114Z,32.71
2023-03-17T12:38:01.110Z,32.90
2023-03-17T12:39:01.144Z,33.10
2023-03-17T12:40:01.082Z,33.40
2023-03-17T12:41:02.056Z,33.60
2023-03-17T12:42:01.081Z,32.90
2023-03-17T12:43:02.053Z,32.98
2023-03-17T12:44:01.034Z,32.90
2023-03-17T12:45:01.032Z,32.70
2023-03-17T12:46:01.020Z,33.70
2023-03-17T12:47:02.031Z,33.10
2023-03-17T12:48:01.014Z,32.70
2023-03-17T12:49:02.005Z,33.60
2023-03-17T12:50:01.065Z,33.30
2023-03-17T12:51:00.943Z,33.48
2023-03-17T12:52:00.943Z,33.39